Time;durP1;ratioP1;P1;durP2;ratioP2;P2;SDS_P1;SDS_P2;PMS_P1;PMS_P2;Temp;Humidity;BMP_temperature;BMP_pressure;BME280_temperature;BME280_humidity;BME280_pressure;Samples;Min_cycle;Max_cycle;Signal;HPM_P1;HPM_P2
2024/03/03 00:01:38;;;;;;;4.72;2.15;;;12.20;73.90;;;;;;5019880;28;20400;-85
2024/03/03 00:04:04;;;;;;;4.10;2.08;;;12.20;73.90;;;;;;5020326;28;20018;-86
2024/03/03 00:06:29;;;;;;;3.60;1.50;;;12.20;74.00;;;;;;5019839;28;20085;-86
2024/03/03 00:08:56;;;;;;;4.15;1.83;;;12.20;74.00;;;;;;5021579;28;20037;-86
2024/03/03 00:11:22;;;;;;;7.22;2.13;;;12.20;74.10;;;;;;5019502;28;20169;-86
2024/03/03 00:13:48;;;;;;;7.65;2.00;;;12.20;74.10;;;;;;5019969;28;20030;-85
2024/03/03 00:16:13;;;;;;;4.20;1.67;;;12.20;74.20;;;;;;5019698;28;20527;-84
2024/03/03 00:18:39;;;;;;;4.82;2.47;;;12.20;74.30;;;;;;5021193;28;20018;-85
2024/03/03 00:21:11;;;;;;;4.72;1.98;;;12.20;74.20;;;;;;5028877;28;20022;-86
2024/03/03 00:23:37;;;;;;;5.55;2.83;;;12.20;74.30;;;;;;5019252;28;20690;-85
2024/03/03 00:26:02;;;;;;;4.38;2.13;;;12.20;74.50;;;;;;5019724;28;20033;-85
2024/03/03 00:28:28;;;;;;;5.43;2.50;;;12.20;75.00;;;;;;5019422;28;20022;-85
2024/03/03 00:30:54;;;;;;;5.63;2.38;;;12.20;74.60;;;;;;5022089;28;20053;-85
2024/03/03 00:33:20;;;;;;;6.20;2.35;;;12.20;74.60;;;;;;5039764;28;20478;-86
2024/03/03 00:35:45;;;;;;;5.03;2.50;;;12.20;74.60;;;;;;5039384;28;20052;-84
2024/03/03 00:38:11;;;;;;;4.72;2.28;;;12.20;74.50;;;;;;5040815;28;20022;-85
2024/03/03 00:40:38;;;;;;;5.82;2.50;;;12.10;74.50;;;;;;5038736;28;20389;-85
2024/03/03 00:43:04;;;;;;;5.68;2.50;;;12.10;74.70;;;;;;5039487;28;20040;-85
2024/03/03 00:45:30;;;;;;;5.40;1.85;;;12.00;75.30;;;;;;5038881;28;20013;-85
2024/03/03 00:47:56;;;;;;;4.80;2.33;;;12.00;74.80;;;;;;5039293;28;20049;-85
2024/03/03 00:50:22;;;;;;;5.72;2.53;;;11.90;75.00;;;;;;5039106;28;20049;-84
2024/03/03 00:52:54;;;;;;;6.15;2.15;;;11.90;75.10;;;;;;5039047;28;20029;-85
2024/03/03 00:55:22;;;;;;;4.90;2.25;;;11.80;75.10;;;;;;5039213;28;20049;-86
2024/03/03 00:57:48;;;;;;;5.93;2.53;;;11.80;75.20;;;;;;5038757;28;20029;-86
2024/03/03 01:00:14;;;;;;;4.40;2.05;;;11.80;75.30;;;;;;5038830;28;20394;-86
2024/03/03 01:02:40;;;;;;;5.07;2.50;;;11.80;75.50;;;;;;5038709;28;20029;-86
2024/03/03 01:05:08;;;;;;;5.80;2.78;;;11.80;75.50;;;;;;5038717;28;20056;-86
2024/03/03 01:07:33;;;;;;;5.90;2.65;;;11.80;75.90;;;;;;5039580;28;20072;-85
2024/03/03 01:09:59;;;;;;;6.00;2.70;;;11.80;76.00;;;;;;5033353;28;20049;-85
2024/03/03 01:12:25;;;;;;;5.25;2.60;;;11.80;75.90;;;;;;5024904;28;20033;-84
2024/03/03 01:14:51;;;;;;;7.78;2.95;;;11.80;76.00;;;;;;5026296;28;20026;-85
2024/03/03 01:17:16;;;;;;;7.47;3.25;;;11.70;76.10;;;;;;5036730;28;20028;-85
2024/03/03 01:19:42;;;;;;;7.82;3.58;;;11.80;76.20;;;;;;5038629;28;20036;-86
2024/03/03 01:22:08;;;;;;;7.95;3.03;;;11.80;76.50;;;;;;5038586;28;20386;-86
2024/03/03 01:24:34;;;;;;;6.55;3.08;;;11.70;76.50;;;;;;5039430;28;20024;-85
2024/03/03 01:27:00;;;;;;;7.03;3.72;;;11.70;76.40;;;;;;5038883;28;20131;-86
2024/03/03 01:29:27;;;;;;;5.50;3.00;;;11.70;76.50;;;;;;5035500;28;20036;-85
2024/03/03 01:31:53;;;;;;;6.32;3.17;;;11.80;76.70;;;;;;5030830;28;20048;-86
2024/03/03 01:34:19;;;;;;;6.97;3.35;;;11.70;76.80;;;;;;5023157;28;20034;-86
2024/03/03 01:36:44;;;;;;;6.90;3.10;;;11.70;76.90;;;;;;5022808;28;20025;-86
2024/03/03 01:39:10;;;;;;;6.88;3.58;;;11.80;77.10;;;;;;5023189;28;20022;-86
2024/03/03 01:41:36;;;;;;;6.43;3.38;;;11.80;76.90;;;;;;5033910;28;20033;-85
2024/03/03 01:44:02;;;;;;;6.60;3.03;;;11.80;77.10;;;;;;5022763;28;20022;-86
2024/03/03 01:46:28;;;;;;;6.63;3.38;;;11.80;77.10;;;;;;5022738;28;20334;-86
2024/03/03 01:48:55;;;;;;;6.07;3.42;;;11.80;77.30;;;;;;5022401;28;20033;-85
2024/03/03 01:51:22;;;;;;;6.88;3.15;;;11.80;77.30;;;;;;5024253;28;20046;-85
2024/03/03 01:53:50;;;;;;;8.40;4.20;;;11.70;77.20;;;;;;5022330;28;20043;-85
2024/03/03 01:56:19;;;;;;;7.78;3.95;;;11.60;77.40;;;;;;5022573;28;20015;-86
2024/03/03 01:58:45;;;;;;;7.78;4.10;;;11.70;78.10;;;;;;5022456;28;20034;-85
2024/03/03 02:01:12;;;;;;;9.90;4.53;;;11.70;78.10;;;;;;5022114;28;20030;-85
2024/03/03 02:03:39;;;;;;;8.07;4.03;;;11.70;78.10;;;;;;5022879;28;20049;-86
2024/03/03 02:06:06;;;;;;;7.50;4.10;;;11.70;78.00;;;;;;5023928;28;20037;-85
2024/03/03 02:08:34;;;;;;;7.32;3.92;;;11.60;78.10;;;;;;5022970;28;20043;-85
2024/03/03 02:11:00;;;;;;;6.38;3.80;;;11.60;78.10;;;;;;5021667;28;20056;-85
2024/03/03 02:13:26;;;;;;;8.07;4.30;;;11.60;78.30;;;;;;5022116;28;20053;-85
2024/03/03 02:15:52;;;;;;;8.90;4.93;;;11.50;78.30;;;;;;5022373;28;20048;-86
2024/03/03 02:18:17;;;;;;;9.73;5.38;;;11.60;78.50;;;;;;5022012;28;20030;-86
2024/03/03 02:20:43;;;;;;;6.60;3.97;;;11.50;78.50;;;;;;5022397;28;20630;-85
2024/03/03 02:23:09;;;;;;;7.93;4.53;;;11.50;78.50;;;;;;5021762;28;20033;-85
2024/03/03 02:25:37;;;;;;;8.53;3.73;;;11.50;78.60;;;;;;5022750;28;20030;-85
2024/03/03 02:28:03;;;;;;;9.43;4.63;;;11.50;78.80;;;;;;5024028;28;20026;-85
2024/03/03 02:30:29;;;;;;;9.77;4.80;;;11.50;78.60;;;;;;5025816;28;20026;-85
2024/03/03 02:32:55;;;;;;;8.30;4.20;;;11.50;78.70;;;;;;5023808;28;20082;-85
2024/03/03 02:35:20;;;;;;;9.40;4.50;;;11.50;78.80;;;;;;5024925;28;20021;-85
2024/03/03 02:37:46;;;;;;;9.20;3.83;;;11.40;78.80;;;;;;5026407;28;20056;-85
2024/03/03 02:40:12;;;;;;;8.55;4.28;;;11.40;78.90;;;;;;5023281;28;20026;-85
2024/03/03 02:42:38;;;;;;;8.43;4.32;;;11.40;78.90;;;;;;5022524;28;20041;-85
2024/03/03 02:45:04;;;;;;;9.48;4.88;;;11.30;78.90;;;;;;5021641;28;20056;-86
2024/03/03 02:47:30;;;;;;;7.63;4.17;;;11.30;78.90;;;;;;5021371;28;20077;-85
2024/03/03 02:49:56;;;;;;;6.83;3.80;;;11.30;79.00;;;;;;5021462;28;20068;-84
2024/03/03 02:52:22;;;;;;;9.65;4.70;;;11.30;79.10;;;;;;5021523;28;20030;-84
2024/03/03 02:54:48;;;;;;;7.97;4.00;;;11.20;79.10;;;;;;5021254;28;20030;-84
2024/03/03 02:57:13;;;;;;;8.73;4.00;;;11.20;79.20;;;;;;5021125;28;20030;-84
2024/03/03 02:59:40;;;;;;;7.23;3.80;;;11.10;79.20;;;;;;5021632;28;20040;-84
2024/03/03 03:02:05;;;;;;;7.37;3.87;;;11.10;79.40;;;;;;5021072;28;20052;-86
2024/03/03 03:04:31;;;;;;;9.67;4.27;;;11.10;79.30;;;;;;5021351;28;20030;-84
2024/03/03 03:06:57;;;;;;;8.10;4.30;;;11.00;79.30;;;;;;5021111;28;20093;-85
2024/03/03 03:09:23;;;;;;;12.50;5.10;;;11.00;79.40;;;;;;5021111;28;20018;-84
2024/03/03 03:11:49;;;;;;;8.98;4.38;;;11.00;79.60;;;;;;5017800;28;20397;-84
2024/03/03 03:14:15;;;;;;;10.93;4.83;;;10.90;79.60;;;;;;5001386;28;20091;-85
2024/03/03 03:16:41;;;;;;;10.37;4.97;;;10.90;79.70;;;;;;5001711;28;20026;-84
2024/03/03 03:19:08;;;;;;;11.90;5.83;;;10.80;79.80;;;;;;5000949;28;20033;-85
2024/03/03 03:21:34;;;;;;;11.13;5.40;;;10.80;80.00;;;;;;5001512;28;20105;-84
2024/03/03 03:24:00;;;;;;;10.73;5.23;;;10.70;80.00;;;;;;5001035;28;20019;-84
2024/03/03 03:26:26;;;;;;;10.17;5.47;;;10.70;80.20;;;;;;5001110;28;20057;-84
2024/03/03 03:28:51;;;;;;;8.55;4.72;;;10.70;80.40;;;;;;5001661;28;20479;-84
2024/03/03 03:31:17;;;;;;;9.27;4.90;;;10.70;80.50;;;;;;5000020;28;20050;-84
2024/03/03 03:33:43;;;;;;;9.27;5.17;;;10.70;80.60;;;;;;5001645;28;20065;-85
2024/03/03 03:36:09;;;;;;;9.33;4.73;;;10.60;80.80;;;;;;5000775;28;20064;-85
2024/03/03 03:38:36;;;;;;;10.27;4.80;;;10.60;80.80;;;;;;5001411;28;20026;-84
2024/03/03 03:41:03;;;;;;;7.67;4.00;;;10.60;80.80;;;;;;5000099;28;20027;-85
2024/03/03 03:43:29;;;;;;;8.70;4.70;;;10.60;80.90;;;;;;5000793;28;20041;-84
2024/03/03 03:45:55;;;;;;;9.50;4.47;;;10.50;80.90;;;;;;5000540;28;20031;-86
2024/03/03 03:48:22;;;;;;;8.57;4.33;;;10.50;81.00;;;;;;5000812;28;20030;-86
2024/03/03 03:50:47;;;;;;;7.67;4.07;;;10.50;81.10;;;;;;5000632;28;20467;-85
2024/03/03 03:53:13;;;;;;;8.33;4.33;;;10.50;81.30;;;;;;4999686;28;20023;-86
2024/03/03 03:55:39;;;;;;;8.07;4.00;;;10.40;81.30;;;;;;5000960;28;20022;-86
2024/03/03 03:58:04;;;;;;;7.10;3.63;;;10.40;81.40;;;;;;5000289;28;20069;-86
2024/03/03 04:00:30;;;;;;;9.27;4.57;;;10.40;81.40;;;;;;5000502;28;20019;-86
2024/03/03 04:02:56;;;;;;;8.03;4.00;;;10.40;81.50;;;;;;5000418;28;20023;-84
2024/03/03 04:05:22;;;;;;;7.67;3.80;;;10.40;81.50;;;;;;5000175;28;20034;-84
2024/03/03 04:07:47;;;;;;;7.23;3.60;;;10.40;81.50;;;;;;5000870;28;20046;-84
2024/03/03 04:10:17;;;;;;;7.90;3.83;;;10.30;81.50;;;;;;5006458;28;20485;-84
2024/03/03 04:12:44;;;;;;;8.47;3.80;;;10.30;81.60;;;;;;5020179;28;20108;-84
2024/03/03 04:15:12;;;;;;;7.77;3.70;;;10.30;81.60;;;;;;5019228;28;20090;-84
2024/03/03 04:17:38;;;;;;;7.03;3.90;;;10.20;81.70;;;;;;5019862;28;20022;-85
2024/03/03 04:20:05;;;;;;;6.63;3.70;;;10.20;81.80;;;;;;5020031;28;20022;-85
2024/03/03 04:22:32;;;;;;;7.20;3.90;;;10.10;81.80;;;;;;5019616;28;20514;-84
2024/03/03 04:24:57;;;;;;;7.13;3.30;;;10.10;81.90;;;;;;5020412;28;20026;-84
2024/03/03 04:27:23;;;;;;;6.90;3.30;;;10.10;82.00;;;;;;5019231;28;20069;-84
2024/03/03 04:29:49;;;;;;;7.97;3.63;;;10.10;82.10;;;;;;5019631;28;20481;-85
2024/03/03 04:32:15;;;;;;;7.67;3.90;;;10.00;82.10;;;;;;5018756;28;20104;-85
2024/03/03 04:34:41;;;;;;;7.13;3.47;;;10.00;82.20;;;;;;5019809;28;20030;-85
2024/03/03 04:37:07;;;;;;;7.47;3.57;;;10.00;82.20;;;;;;5020889;28;20108;-85
2024/03/03 04:39:37;;;;;;;7.53;3.93;;;9.90;82.30;;;;;;5019095;28;20029;-86
2024/03/03 04:42:03;;;;;;;7.00;3.60;;;9.90;82.40;;;;;;5019660;28;20145;-84
2024/03/03 04:44:30;;;;;;;6.40;3.20;;;9.90;82.40;;;;;;5019186;28;20026;-84
2024/03/03 04:46:56;;;;;;;7.37;3.63;;;9.90;82.50;;;;;;5019831;28;20105;-85
2024/03/03 04:49:22;;;;;;;7.17;3.70;;;9.90;82.60;;;;;;5020477;28;20029;-84
2024/03/03 04:51:48;;;;;;;7.13;3.57;;;9.90;82.70;;;;;;5019342;28;20038;-84
2024/03/03 04:54:14;;;;;;;10.10;3.60;;;9.80;82.80;;;;;;5019264;28;20428;-84
2024/03/03 04:56:40;;;;;;;8.63;3.90;;;9.80;83.00;;;;;;5019131;28;20061;-84
2024/03/03 04:59:05;;;;;;;9.00;4.03;;;9.80;83.00;;;;;;5019351;28;20065;-85
2024/03/03 05:01:31;;;;;;;6.50;3.30;;;9.80;83.10;;;;;;5019391;28;20053;-84
2024/03/03 05:03:57;;;;;;;6.93;3.97;;;9.80;83.30;;;;;;5019095;28;20065;-85
2024/03/03 05:06:22;;;;;;;6.50;3.53;;;9.80;83.40;;;;;;5018883;28;20129;-84
2024/03/03 05:08:48;;;;;;;7.80;4.00;;;9.80;83.50;;;;;;5019308;28;20030;-85
2024/03/03 05:11:16;;;;;;;10.97;4.10;;;9.80;83.50;;;;;;5018750;28;20052;-84
2024/03/03 05:13:41;;;;;;;10.80;4.00;;;9.80;83.50;;;;;;5018596;28;20030;-82
2024/03/03 05:16:08;;;;;;;9.00;3.87;;;9.80;83.50;;;;;;5019209;28;20105;-85
2024/03/03 05:18:34;;;;;;;7.97;4.20;;;9.80;83.50;;;;;;5019011;28;20030;-85
2024/03/03 05:21:00;;;;;;;7.57;3.83;;;9.90;83.70;;;;;;5019189;28;20018;-85
2024/03/03 05:23:26;;;;;;;8.97;4.23;;;9.80;83.60;;;;;;5018913;28;20026;-84
2024/03/03 05:25:51;;;;;;;7.27;4.30;;;9.80;83.70;;;;;;5019466;28;20105;-85
2024/03/03 05:28:18;;;;;;;7.70;3.80;;;9.90;83.70;;;;;;5018523;28;20026;-84
2024/03/03 05:30:44;;;;;;;7.73;3.73;;;9.80;83.70;;;;;;5018709;28;20022;-85
2024/03/03 05:33:11;;;;;;;8.00;4.10;;;9.80;83.80;;;;;;5019147;28;20029;-85
2024/03/03 05:35:38;;;;;;;6.83;3.40;;;9.80;84.00;;;;;;5020060;28;20049;-86
2024/03/03 05:38:04;;;;;;;7.97;3.83;;;9.80;83.90;;;;;;5019565;28;20024;-85
2024/03/03 05:40:30;;;;;;;9.17;4.37;;;9.80;84.00;;;;;;5018337;28;20021;-84
2024/03/03 05:42:56;;;;;;;11.07;4.33;;;9.90;84.10;;;;;;5018998;28;20022;-84
2024/03/03 05:45:21;;;;;;;7.73;4.00;;;9.80;84.10;;;;;;5018641;28;20096;-85
2024/03/03 05:47:47;;;;;;;7.73;4.40;;;9.90;84.10;;;;;;5023955;28;20034;-85
2024/03/03 05:50:13;;;;;;;8.40;4.33;;;9.90;84.10;;;;;;5019493;28;20018;-85
2024/03/03 05:52:41;;;;;;;10.30;4.60;;;9.90;84.20;;;;;;5032273;28;20036;-84
2024/03/03 05:55:08;;;;;;;9.50;4.60;;;9.90;84.30;;;;;;5038483;28;20048;-84
2024/03/03 05:57:34;;;;;;;7.40;4.43;;;10.00;84.10;;;;;;5038174;28;20108;-84
2024/03/03 05:59:59;;;;;;;8.43;4.67;;;10.00;84.20;;;;;;5034777;28;20021;-83
2024/03/03 06:02:25;;;;;;;7.87;4.13;;;10.00;84.10;;;;;;5032281;28;20053;-84
2024/03/03 06:04:51;;;;;;;6.93;3.50;;;10.00;84.10;;;;;;5036443;28;20033;-85
2024/03/03 06:07:17;;;;;;;8.43;4.37;;;10.00;84.10;;;;;;5024829;28;20405;-85
2024/03/03 06:09:43;;;;;;;7.57;4.37;;;10.00;84.10;;;;;;5021047;28;20117;-84
2024/03/03 06:12:09;;;;;;;8.70;4.20;;;10.00;84.60;;;;;;5032350;28;20018;-85
2024/03/03 06:14:35;;;;;;;7.60;3.90;;;10.00;84.30;;;;;;5022939;28;20031;-83
2024/03/03 06:17:00;;;;;;;6.67;3.33;;;10.00;84.40;;;;;;5027189;28;20021;-84
2024/03/03 06:19:26;;;;;;;8.90;3.90;;;10.00;84.50;;;;;;5026505;28;20515;-83
2024/03/03 06:21:55;;;;;;;8.53;4.50;;;10.00;84.50;;;;;;5046156;28;20056;-85
2024/03/03 06:24:20;;;;;;;9.07;4.33;;;10.00;84.60;;;;;;5027812;28;20013;-84
2024/03/03 06:26:46;;;;;;;7.80;4.27;;;10.00;84.70;;;;;;5027221;28;20056;-86
2024/03/03 06:29:12;;;;;;;7.73;4.23;;;10.00;84.70;;;;;;5043983;28;20052;-85
2024/03/03 06:31:45;;;;;;;9.50;4.60;;;10.00;85.10;;;;;;5025031;28;20034;-85
2024/03/03 06:34:11;;;;;;;7.33;4.20;;;10.10;85.00;;;;;;5025862;28;20021;-84
2024/03/03 06:36:37;;;;;;;9.40;4.63;;;10.00;85.00;;;;;;5024427;28;20054;-84
2024/03/03 06:39:04;;;;;;;8.87;3.93;;;10.00;85.10;;;;;;5024680;28;20049;-83
2024/03/03 06:41:32;;;;;;;8.93;4.33;;;10.10;85.20;;;;;;5024627;28;20017;-83
2024/03/03 06:43:58;;;;;;;9.80;4.33;;;10.00;85.30;;;;;;5035391;28;20054;-82
2024/03/03 06:46:24;;;;;;;10.30;4.53;;;10.00;85.40;;;;;;5041501;28;20093;-84
2024/03/03 06:48:49;;;;;;;9.50;4.47;;;10.10;85.50;;;;;;5040629;28;20052;-82
2024/03/03 06:51:15;;;;;;;8.07;4.23;;;10.10;85.60;;;;;;5043453;28;20017;-83
2024/03/03 06:53:41;;;;;;;9.23;4.83;;;10.10;85.60;;;;;;5042273;28;20032;-83
2024/03/03 06:56:17;;;;;;;8.70;4.67;;;10.10;85.70;;;;;;5040698;28;20013;-83
2024/03/03 06:58:44;;;;;;;10.37;4.67;;;10.10;85.80;;;;;;5043551;28;20029;-83
2024/03/03 07:01:10;;;;;;;13.20;6.37;;;10.20;85.90;;;;;;5027610;28;20026;-82
2024/03/03 07:06:20;;;;;;;;;;;10.10;86.70;;;;;;5043305;28;20119;-83
2024/03/03 07:08:46;;;;;;;8.40;4.33;;;10.20;86.00;;;;;;5025032;28;19905;-83
2024/03/03 07:11:12;;;;;;;8.57;4.43;;;10.20;85.90;;;;;;5039831;28;20051;-82
2024/03/03 07:13:38;;;;;;;11.63;4.70;;;10.20;86.00;;;;;;5044186;28;20129;-83
2024/03/03 07:16:04;;;;;;;10.13;4.90;;;10.20;86.20;;;;;;5038444;28;20017;-83
2024/03/03 07:18:29;;;;;;;10.97;5.53;;;10.30;86.50;;;;;;5040197;28;20378;-83
2024/03/03 07:20:55;;;;;;;9.07;4.90;;;10.30;86.60;;;;;;5042092;28;20032;-83
2024/03/03 07:23:21;;;;;;;9.07;4.87;;;10.30;86.40;;;;;;5037150;28;20523;-82
2024/03/03 07:25:46;;;;;;;11.07;5.53;;;10.30;86.30;;;;;;5031637;28;20030;-84
2024/03/03 07:28:12;;;;;;;9.27;5.13;;;10.30;86.30;;;;;;5039287;28;20023;-83
2024/03/03 07:30:38;;;;;;;9.93;5.53;;;10.30;86.40;;;;;;5040917;28;20077;-82
2024/03/03 07:33:04;;;;;;;11.27;5.50;;;10.30;87.10;;;;;;5040229;28;20478;-82
2024/03/03 07:35:29;;;;;;;11.37;5.23;;;10.30;86.60;;;;;;5040112;28;20025;-85
2024/03/03 07:37:55;;;;;;;9.53;4.90;;;10.30;86.60;;;;;;5040803;28;20024;-82
2024/03/03 07:40:21;;;;;;;8.60;5.43;;;10.40;86.70;;;;;;5040046;28;20026;-84
2024/03/03 07:42:46;;;;;;;9.70;5.13;;;10.40;86.90;;;;;;5040871;28;20025;-82
2024/03/03 07:45:12;;;;;;;8.20;4.23;;;10.40;87.00;;;;;;5042039;28;20500;-83
2024/03/03 07:47:38;;;;;;;9.77;5.20;;;10.50;87.10;;;;;;5042373;28;20040;-82
2024/03/03 07:50:04;;;;;;;9.77;5.00;;;10.50;87.20;;;;;;5042942;28;20048;-82
2024/03/03 07:52:30;;;;;;;8.53;5.10;;;10.50;87.20;;;;;;5043442;28;20032;-81
2024/03/03 07:54:56;;;;;;;8.70;5.00;;;10.50;87.20;;;;;;5043851;28;20028;-82
2024/03/03 07:57:22;;;;;;;9.30;4.43;;;10.50;87.20;;;;;;5043096;28;20017;-83
2024/03/03 07:59:47;;;;;;;10.10;4.73;;;10.60;87.30;;;;;;5043978;28;20032;-82
2024/03/03 08:02:13;;;;;;;9.33;5.23;;;10.60;87.40;;;;;;5042395;28;20024;-83
2024/03/03 08:04:39;;;;;;;9.07;4.47;;;10.70;87.50;;;;;;5042156;28;20017;-83
2024/03/03 08:07:05;;;;;;;9.47;5.27;;;10.70;87.50;;;;;;5023849;28;20036;-82
2024/03/03 08:09:31;;;;;;;10.10;5.38;;;10.80;87.50;;;;;;5022060;28;20022;-82
2024/03/03 08:11:57;;;;;;;11.93;5.20;;;10.80;87.40;;;;;;5026974;28;20480;-82
2024/03/03 08:14:22;;;;;;;10.82;5.80;;;10.90;87.40;;;;;;5035100;28;20017;-82
2024/03/03 08:16:48;;;;;;;8.73;4.75;;;11.00;87.40;;;;;;5035726;28;20048;-82
2024/03/03 08:19:14;;;;;;;9.07;5.13;;;11.00;87.30;;;;;;5023405;28;20026;-82
2024/03/03 08:21:39;;;;;;;8.68;4.63;;;11.10;87.30;;;;;;5023085;28;20022;-83
2024/03/03 08:24:05;;;;;;;9.00;5.28;;;11.20;87.30;;;;;;5024599;28;20048;-82
2024/03/03 08:26:31;;;;;;;9.93;5.53;;;11.20;87.30;;;;;;5039606;28;20059;-82
2024/03/03 08:28:57;;;;;;;11.50;5.70;;;11.30;87.30;;;;;;5041241;28;20030;-82
2024/03/03 08:31:22;;;;;;;9.15;5.03;;;11.40;87.30;;;;;;5040262;28;20026;-83
2024/03/03 08:33:48;;;;;;;9.57;4.97;;;11.50;87.40;;;;;;5039468;28;20096;-83
2024/03/03 08:36:14;;;;;;;8.73;4.75;;;11.60;87.30;;;;;;5041365;28;20098;-83
2024/03/03 08:38:39;;;;;;;10.40;5.18;;;11.60;86.90;;;;;;5042508;28;20255;-83
2024/03/03 08:41:05;;;;;;;8.85;5.15;;;11.70;86.60;;;;;;5041890;28;20021;-83
2024/03/03 08:43:31;;;;;;;14.55;5.30;;;11.80;86.60;;;;;;5035626;28;20088;-83
2024/03/03 08:45:57;;;;;;;10.15;5.30;;;11.80;86.50;;;;;;5040583;28;20048;-82
2024/03/03 08:48:26;;;;;;;9.02;4.80;;;11.90;86.50;;;;;;5041777;28;20088;-83
2024/03/03 08:50:52;;;;;;;10.27;5.55;;;12.00;86.40;;;;;;5042467;28;20021;-82
2024/03/03 08:53:18;;;;;;;8.85;4.63;;;12.10;86.30;;;;;;5041357;28;20535;-82
2024/03/03 08:55:45;;;;;;;10.85;5.22;;;12.20;86.00;;;;;;5041554;28;20428;-82
2024/03/03 08:58:11;;;;;;;11.23;5.22;;;12.30;85.80;;;;;;5041420;28;20416;-82
2024/03/03 09:00:37;;;;;;;9.65;5.00;;;12.30;85.70;;;;;;5041784;28;20021;-82
2024/03/03 09:03:02;;;;;;;9.93;5.55;;;12.40;85.60;;;;;;5038720;28;20082;-82
2024/03/03 09:05:28;;;;;;;11.15;5.30;;;12.40;85.30;;;;;;5041590;28;20025;-84
2024/03/03 09:07:54;;;;;;;10.85;5.65;;;12.50;85.00;;;;;;5042159;28;20040;-83
2024/03/03 09:10:20;;;;;;;8.95;4.88;;;12.60;84.50;;;;;;5075161;28;20056;-83
2024/03/03 09:12:45;;;;;;;11.68;6.25;;;12.60;83.90;;;;;;5059091;28;20086;-83
2024/03/03 09:15:11;;;;;;;8.85;5.43;;;12.60;83.70;;;;;;5057841;28;20035;-83
2024/03/03 09:17:37;;;;;;;11.45;5.60;;;12.60;83.80;;;;;;5050898;28;20025;-83
2024/03/03 09:20:05;;;;;;;11.90;5.93;;;12.70;83.60;;;;;;5037726;28;20018;-83
2024/03/03 09:22:32;;;;;;;12.20;5.72;;;12.70;83.50;;;;;;5037676;28;20021;-83
2024/03/03 09:24:57;;;;;;;14.10;6.57;;;12.80;83.50;;;;;;5038412;28;20037;-83
2024/03/03 09:27:25;;;;;;;11.07;6.40;;;12.90;83.20;;;;;;5038411;28;20072;-83
2024/03/03 09:29:52;;;;;;;9.90;5.60;;;12.90;83.00;;;;;;5040251;28;20025;-83
2024/03/03 09:32:18;;;;;;;11.27;5.95;;;13.00;82.90;;;;;;5037623;28;20049;-83
2024/03/03 09:34:44;;;;;;;11.50;5.47;;;13.10;82.90;;;;;;5039134;28;20075;-84
2024/03/03 09:37:12;;;;;;;10.90;6.30;;;13.10;82.90;;;;;;5039821;28;20029;-84
2024/03/03 09:39:38;;;;;;;12.23;6.47;;;13.30;83.10;;;;;;5038071;28;20032;-83
2024/03/03 09:42:04;;;;;;;10.90;5.70;;;13.40;83.00;;;;;;5039510;28;20025;-83
2024/03/03 09:44:42;;;;;;;10.85;6.40;;;13.60;83.00;;;;;;5039586;28;20033;-83
2024/03/03 09:47:11;;;;;;;12.55;5.85;;;13.70;82.60;;;;;;5039128;28;20065;-83
2024/03/03 09:49:42;;;;;;;12.63;6.43;;;13.80;82.00;;;;;;5038657;28;20033;-82
2024/03/03 09:52:15;;;;;;;15.00;6.40;;;13.90;81.30;;;;;;5041660;28;20096;-83
2024/03/03 09:54:41;;;;;;;8.23;4.68;;;14.00;81.10;;;;;;5042279;28;20033;-83
2024/03/03 09:57:18;;;;;;;11.90;6.18;;;14.10;80.70;;;;;;5042210;28;20025;-83
2024/03/03 09:59:48;;;;;;;9.90;5.65;;;14.20;80.40;;;;;;5043438;28;20037;-83
2024/03/03 10:02:16;;;;;;;12.32;6.28;;;14.30;80.30;;;;;;5044146;28;20036;-83
2024/03/03 10:04:45;;;;;;;10.90;6.43;;;14.40;80.30;;;;;;5043648;28;20104;-84
2024/03/03 10:07:20;;;;;;;11.85;6.55;;;14.60;80.30;;;;;;5043770;28;20423;-82
2024/03/03 10:09:48;;;;;;;14.68;5.60;;;14.90;80.50;;;;;;5046527;28;20128;-82
2024/03/03 10:12:14;;;;;;;9.88;5.47;;;15.40;80.70;;;;;;5047314;28;20029;-83
2024/03/03 10:14:40;;;;;;;9.05;4.78;;;15.70;80.40;;;;;;5045853;28;20067;-83
2024/03/03 10:17:06;;;;;;;11.52;5.82;;;16.10;80.40;;;;;;5046367;28;20025;-83
2024/03/03 10:19:32;;;;;;;9.98;5.53;;;16.50;80.30;;;;;;5044096;28;20040;-84
2024/03/03 10:21:59;;;;;;;10.43;5.20;;;17.10;79.40;;;;;;5045173;28;20025;-84
2024/03/03 10:24:27;;;;;;;9.10;5.03;;;17.60;79.10;;;;;;5044448;28;20032;-83
2024/03/03 10:26:54;;;;;;;8.63;4.65;;;18.30;78.80;;;;;;5044574;28;20039;-84
2024/03/03 10:29:21;;;;;;;7.85;4.40;;;19.00;78.10;;;;;;5044447;28;20096;-84
2024/03/03 10:31:48;;;;;;;8.07;4.50;;;19.70;75.10;;;;;;5044242;28;20009;-84
2024/03/03 10:34:18;;;;;;;6.40;3.58;;;20.40;74.10;;;;;;5045485;28;20023;-84
2024/03/03 10:36:44;;;;;;;7.05;4.10;;;21.00;72.70;;;;;;5062453;28;20017;-84
2024/03/03 10:39:11;;;;;;;6.30;3.25;;;21.60;70.70;;;;;;5045191;28;20087;-84
2024/03/03 10:41:37;;;;;;;7.03;3.78;;;22.30;70.00;;;;;;5043619;28;20499;-84
2024/03/03 10:44:04;;;;;;;6.68;3.20;;;22.90;68.30;;;;;;5048346;28;20458;-84
2024/03/03 10:46:30;;;;;;;8.15;3.97;;;23.20;66.60;;;;;;5064246;28;20036;-85
2024/03/03 10:48:56;;;;;;;5.90;2.97;;;23.50;65.60;;;;;;5063635;28;20036;-85
2024/03/03 10:51:22;;;;;;;5.78;3.55;;;23.80;64.70;;;;;;5065043;28;20021;-84
2024/03/03 10:53:52;;;;;;;6.93;3.70;;;24.00;62.80;;;;;;5063747;28;20108;-84
2024/03/03 10:56:19;;;;;;;7.32;4.57;;;23.90;60.60;;;;;;5064712;28;20059;-85
2024/03/03 10:58:47;;;;;;;7.10;3.95;;;23.70;59.20;;;;;;5063548;28;20066;-85
2024/03/03 11:01:14;;;;;;;6.32;3.67;;;23.80;59.40;;;;;;5063262;28;20035;-84
2024/03/03 11:03:45;;;;;;;8.02;3.65;;;23.80;58.60;;;;;;5064475;28;20012;-85
2024/03/03 11:06:12;;;;;;;7.38;3.92;;;23.70;58.10;;;;;;5064158;28;20047;-83
2024/03/03 11:08:49;;;;;;;5.28;3.20;;;23.50;57.70;;;;;;5064646;28;20499;-84
2024/03/03 11:11:18;;;;;;;7.03;3.60;;;23.30;57.30;;;;;;5062680;28;20123;-85
2024/03/03 11:13:59;;;;;;;7.82;4.45;;;23.20;56.90;;;;;;5063957;28;20282;-84
2024/03/03 11:16:29;;;;;;;5.85;3.28;;;23.10;56.10;;;;;;5063987;28;20036;-84
2024/03/03 11:19:18;;;;;;;6.90;3.88;;;23.10;56.00;;;;;;5045161;28;20017;-85
2024/03/03 11:21:51;;;;;;;7.18;3.85;;;23.00;55.40;;;;;;5041087;28;20025;-85
2024/03/03 11:24:29;;;;;;;8.20;3.38;;;23.00;54.90;;;;;;5042551;28;20021;-85
2024/03/03 11:27:04;;;;;;;6.18;3.47;;;22.80;55.00;;;;;;5061751;28;20041;-84
2024/03/03 11:29:31;;;;;;;5.90;3.22;;;22.60;55.00;;;;;;5044043;28;20112;-85
2024/03/03 11:31:57;;;;;;;7.50;4.28;;;22.60;55.10;;;;;;5041855;28;20159;-85
2024/03/03 11:34:24;;;;;;;6.85;3.80;;;22.70;54.90;;;;;;5044082;28;20520;-85
2024/03/03 11:36:50;;;;;;;5.60;3.33;;;22.80;54.90;;;;;;5041955;28;20048;-85
2024/03/03 11:39:16;;;;;;;7.30;3.92;;;22.70;54.40;;;;;;5043570;28;20476;-84
2024/03/03 11:41:45;;;;;;;7.65;3.97;;;22.90;54.60;;;;;;5042376;28;20017;-84
2024/03/03 11:44:35;;;;;;;9.27;4.20;;;23.20;55.00;;;;;;5043228;28;20024;-86
2024/03/03 11:47:05;;;;;;;5.82;3.50;;;23.80;54.60;;;;;;5024144;28;20053;-85
2024/03/03 11:49:32;;;;;;;6.32;3.80;;;24.50;55.00;;;;;;5023078;28;20025;-86
2024/03/03 11:51:58;;;;;;;5.43;3.08;;;25.20;54.30;;;;;;5024386;28;20028;-85
2024/03/03 11:54:37;;;;;;;4.78;2.88;;;25.80;53.90;;;;;;5041740;28;20025;-86
2024/03/03 11:57:04;;;;;;;5.38;3.08;;;26.40;53.00;;;;;;5034593;28;20044;-86
2024/03/03 12:00:00;;;;;;;5.68;2.83;;;26.90;53.00;;;;;;5023670;28;20386;-88
2024/03/03 12:02:26;;;;;;;5.85;3.33;;;27.50;50.80;;;;;;5022963;28;20031;-89
2024/03/03 12:04:51;;;;;;;7.22;3.17;;;28.00;50.90;;;;;;5024573;28;20093;-89
2024/03/03 12:07:20;;;;;;;5.50;2.78;;;28.40;49.50;;;;;;5023378;28;20083;-89
2024/03/03 12:09:46;;;;;;;4.93;2.58;;;28.70;48.30;;;;;;5040550;28;20052;-90
2024/03/03 12:12:12;;;;;;;4.95;2.75;;;28.70;47.70;;;;;;5043477;28;20021;-89
2024/03/03 12:14:39;;;;;;;6.03;2.13;;;28.70;46.80;;;;;;5043134;28;20029;-89
2024/03/03 12:17:08;;;;;;;4.25;2.25;;;28.60;46.20;;;;;;5044306;28;20431;-90
2024/03/03 12:19:34;;;;;;;4.95;2.22;;;28.70;46.10;;;;;;5043049;28;20025;-90
2024/03/03 12:22:01;;;;;;;4.53;2.25;;;28.90;46.40;;;;;;5043687;28;20102;-90
2024/03/03 12:24:27;;;;;;;6.80;2.47;;;29.50;46.30;;;;;;5042927;28;20059;-89
2024/03/03 12:26:52;;;;;;;5.55;2.42;;;29.80;45.70;;;;;;5042615;28;20393;-90
2024/03/03 12:29:18;;;;;;;7.03;2.22;;;30.20;44.70;;;;;;5042330;28;20025;-90
2024/03/03 12:31:44;;;;;;;5.47;2.00;;;30.50;44.20;;;;;;5041722;28;20092;-89
2024/03/03 12:34:10;;;;;;;3.30;1.73;;;30.80;43.90;;;;;;5044177;28;20021;-90
2024/03/03 12:36:36;;;;;;;3.70;1.55;;;31.10;43.50;;;;;;5025666;28;20120;-91
2024/03/03 12:39:08;;;;;;;2.83;1.63;;;31.40;43.20;;;;;;5043126;28;20080;-91
2024/03/03 12:41:34;;;;;;;2.53;1.43;;;31.80;42.30;;;;;;5042050;28;20072;-90
2024/03/03 12:44:00;;;;;;;2.60;1.42;;;32.00;42.30;;;;;;5043405;28;20345;-90
2024/03/03 12:46:26;;;;;;;4.30;1.83;;;32.30;42.10;;;;;;5042677;28;20037;-91